Time;durP1;ratioP1;P1;durP2;ratioP2;P2;SDS_P1;SDS_P2;PMS_P1;PMS_P2;Temp;Humidity;BMP_temperature;BMP_pressure;BME280_temperature;BME280_humidity;BME280_pressure;Samples;Min_cycle;Max_cycle;Signal;HPM_P1;HPM_P2
2023/03/05 00:02:24;;;;;;;17.83;10.05;;;1.10;91.80;;;;;;5000702;28;20081;-76
2023/03/05 00:04:50;;;;;;;20.30;11.23;;;1.10;91.90;;;;;;5004697;28;20073;-76
2023/03/05 00:07:16;;;;;;;22.10;11.82;;;1.10;92.00;;;;;;5000675;28;20030;-76
2023/03/05 00:09:41;;;;;;;20.25;11.75;;;1.10;92.10;;;;;;5012904;28;20370;-77
2023/03/05 00:12:07;;;;;;;18.30;10.25;;;1.10;92.20;;;;;;5021492;28;20038;-77
2023/03/05 00:14:33;;;;;;;16.50;9.13;;;1.10;92.20;;;;;;5017180;28;20471;-76
2023/03/05 00:16:59;;;;;;;16.00;9.55;;;1.20;92.30;;;;;;5012408;28;20026;-76
2023/03/05 00:19:24;;;;;;;20.83;10.68;;;1.20;92.30;;;;;;5013415;28;20084;-76
2023/03/05 00:21:50;;;;;;;22.92;11.05;;;1.30;92.20;;;;;;4983487;28;20117;-75
2023/03/05 00:24:17;;;;;;;22.30;10.45;;;1.20;92.10;;;;;;5001310;28;20023;-76
2023/03/05 00:26:44;;;;;;;20.90;10.00;;;1.20;92.10;;;;;;4982048;28;20113;-77
2023/03/05 00:29:14;;;;;;;17.85;10.02;;;1.10;92.20;;;;;;5000279;28;20049;-76
2023/03/05 00:31:40;;;;;;;22.92;11.85;;;1.10;92.30;;;;;;4981884;28;20023;-77
2023/03/05 00:34:12;;;;;;;20.17;11.13;;;1.10;92.30;;;;;;5000052;28;20022;-76
2023/03/05 00:36:51;;;;;;;17.40;9.68;;;1.10;92.30;;;;;;5002866;28;20176;-77
2023/03/05 00:39:18;;;;;;;21.83;11.90;;;1.10;92.40;;;;;;5003078;28;20085;-77
2023/03/05 00:41:44;;;;;;;33.15;15.68;;;1.10;92.50;;;;;;4977062;28;20058;-77
2023/03/05 00:44:10;;;;;;;22.88;11.82;;;1.00;92.40;;;;;;4982842;28;20041;-76
2023/03/05 00:46:36;;;;;;;24.95;13.82;;;1.00;92.50;;;;;;5011118;28;20030;-76
2023/03/05 00:49:02;;;;;;;28.08;13.18;;;1.00;92.60;;;;;;5014463;28;20018;-76
2023/03/05 00:51:28;;;;;;;23.48;11.77;;;1.00;92.60;;;;;;5014523;28;20089;-77
2023/03/05 00:53:54;;;;;;;24.15;12.40;;;0.90;92.60;;;;;;4997171;28;20504;-77
2023/03/05 00:56:20;;;;;;;31.25;13.70;;;0.90;93.00;;;;;;4997814;28;20379;-77
2023/03/05 00:58:46;;;;;;;22.20;13.05;;;0.80;92.80;;;;;;4995625;28;20026;-76
2023/03/05 01:01:13;;;;;;;22.30;11.93;;;0.80;92.90;;;;;;4995393;28;20533;-76
2023/03/05 01:03:38;;;;;;;29.38;14.38;;;0.80;93.10;;;;;;4999054;28;20042;-77
2023/03/05 01:06:07;;;;;;;25.80;12.73;;;0.70;93.10;;;;;;4994796;28;20023;-76
2023/03/05 01:08:34;;;;;;;26.02;14.18;;;0.70;93.30;;;;;;4994919;28;20036;-76
2023/03/05 01:11:00;;;;;;;28.67;14.65;;;0.70;93.40;;;;;;4995603;28;20037;-76
2023/03/05 01:13:25;;;;;;;25.90;13.88;;;0.70;93.50;;;;;;4994681;28;20029;-76
2023/03/05 01:15:51;;;;;;;28.13;13.00;;;0.80;93.60;;;;;;4996465;28;20101;-76
2023/03/05 01:18:18;;;;;;;24.50;12.68;;;0.80;93.60;;;;;;5014720;28;20030;-76
2023/03/05 01:20:44;;;;;;;29.15;13.85;;;0.90;93.60;;;;;;5014393;28;20032;-76
2023/03/05 01:23:10;;;;;;;26.38;12.85;;;0.90;93.50;;;;;;4975099;28;20101;-77
2023/03/05 01:25:35;;;;;;;27.25;12.93;;;0.90;93.30;;;;;;4975297;28;20023;-77
2023/03/05 01:28:02;;;;;;;23.35;11.77;;;0.90;93.30;;;;;;4975389;28;20026;-77
2023/03/05 01:30:27;;;;;;;24.00;11.55;;;0.90;93.30;;;;;;4957691;28;20086;-75
2023/03/05 01:32:54;;;;;;;17.73;9.48;;;0.90;93.30;;;;;;5003245;28;20492;-77
2023/03/05 01:35:21;;;;;;;24.48;12.90;;;1.00;93.30;;;;;;5016439;28;20034;-77
2023/03/05 01:37:47;;;;;;;21.35;10.48;;;0.90;93.20;;;;;;5014421;28;20018;-77
2023/03/05 01:40:17;;;;;;;18.95;10.82;;;1.00;93.30;;;;;;4996525;28;20030;-77
2023/03/05 01:43:18;;;;;;;26.92;12.18;;;1.00;93.30;;;;;;5003711;28;20403;-75
2023/03/05 01:46:11;;;;;;;21.05;10.48;;;1.10;93.30;;;;;;4995929;28;20045;-76
2023/03/05 01:48:39;;;;;;;19.88;9.60;;;1.10;93.30;;;;;;5008956;23;20073;-78
2023/03/05 01:51:05;;;;;;;20.02;10.15;;;1.20;93.20;;;;;;5022656;28;20042;-81
2023/03/05 01:53:31;;;;;;;20.50;9.45;;;1.20;93.20;;;;;;5006328;28;20027;-77
2023/03/05 01:55:57;;;;;;;17.42;8.60;;;1.20;93.20;;;;;;5005667;28;20162;-78
2023/03/05 01:58:24;;;;;;;19.55;9.25;;;1.20;93.10;;;;;;5006470;28;20121;-78
2023/03/05 02:00:52;;;;;;;18.73;10.13;;;1.20;93.10;;;;;;5006662;28;20034;-79
2023/03/05 02:03:19;;;;;;;22.42;11.18;;;1.20;93.00;;;;;;5010591;28;20027;-79
2023/03/05 02:05:45;;;;;;;23.92;11.63;;;1.20;93.00;;;;;;5007028;28;20399;-78
2023/03/05 02:08:14;;;;;;;21.35;10.75;;;1.20;93.00;;;;;;5006823;28;20023;-79
2023/03/05 02:10:51;;;;;;;24.50;11.23;;;1.20;93.00;;;;;;4996254;28;20057;-80
2023/03/05 02:13:26;;;;;;;19.75;10.25;;;1.20;93.10;;;;;;4994752;28;20053;-78
2023/03/05 02:15:54;;;;;;;20.60;9.43;;;1.30;93.20;;;;;;5012479;28;20022;-79
2023/03/05 02:18:23;;;;;;;21.48;11.32;;;1.30;93.10;;;;;;5013271;28;20026;-79
2023/03/05 02:20:55;;;;;;;18.88;10.80;;;1.30;93.10;;;;;;5011662;28;20474;-77
2023/03/05 02:23:24;;;;;;;23.13;10.27;;;1.30;93.20;;;;;;5031113;28;20132;-78
2023/03/05 02:25:50;;;;;;;27.98;12.88;;;1.30;93.10;;;;;;5017705;28;20050;-77
2023/03/05 02:28:25;;;;;;;23.63;12.40;;;1.30;93.00;;;;;;5007112;28;20019;-78
2023/03/05 02:30:53;;;;;;;23.15;11.45;;;1.30;93.00;;;;;;4991275;28;20033;-79
2023/03/05 02:33:19;;;;;;;23.35;11.05;;;1.30;93.10;;;;;;5006258;28;20078;-78
2023/03/05 02:35:45;;;;;;;22.58;11.35;;;1.40;93.20;;;;;;5005529;28;20038;-77
2023/03/05 02:38:13;;;;;;;23.42;12.18;;;1.40;93.10;;;;;;5007142;28;20041;-79
2023/03/05 02:40:39;;;;;;;23.60;12.82;;;1.30;93.30;;;;;;5007152;28;20026;-80
2023/03/05 02:43:05;;;;;;;24.00;11.85;;;1.40;93.00;;;;;;5007318;28;20463;-77
2023/03/05 02:45:30;;;;;;;24.50;12.57;;;1.30;93.00;;;;;;5007671;28;20030;-78
2023/03/05 02:47:56;;;;;;;26.38;13.32;;;1.30;93.00;;;;;;4988664;28;20041;-77
2023/03/05 02:50:22;;;;;;;24.23;12.00;;;1.30;93.10;;;;;;5014879;28;20034;-80
2023/03/05 02:52:48;;;;;;;21.50;10.82;;;1.30;93.20;;;;;;5031312;28;20072;-78
2023/03/05 02:55:15;;;;;;;18.63;10.60;;;1.30;93.20;;;;;;5021941;28;20038;-77
2023/03/05 02:57:40;;;;;;;22.85;11.45;;;1.40;93.30;;;;;;5001258;28;20034;-78
2023/03/05 03:00:14;;;;;;;23.95;12.15;;;1.40;93.30;;;;;;5003249;28;20394;-81
2023/03/05 03:02:40;;;;;;;27.27;12.68;;;1.40;93.20;;;;;;5004541;28;20034;-77
2023/03/05 03:05:06;;;;;;;17.77;9.50;;;1.40;93.20;;;;;;5004647;28;20034;-79
2023/03/05 03:07:34;;;;;;;20.48;10.35;;;1.40;93.20;;;;;;5008314;28;20045;-79
2023/03/05 03:10:06;;;;;;;18.63;10.13;;;1.30;93.20;;;;;;5000810;28;20062;-80
2023/03/05 03:12:37;;;;;;;16.50;9.18;;;1.30;93.30;;;;;;4991886;28;20030;-77
2023/03/05 03:15:03;;;;;;;20.67;10.30;;;1.40;93.30;;;;;;5009027;28;20106;-77
2023/03/05 03:17:29;;;;;;;18.40;9.23;;;1.30;93.30;;;;;;5010957;28;20018;-78
2023/03/05 03:19:54;;;;;;;19.77;9.75;;;1.40;93.40;;;;;;5013443;28;20036;-77
2023/03/05 03:22:20;;;;;;;21.00;10.27;;;1.30;93.40;;;;;;5022659;28;20030;-78
2023/03/05 03:24:46;;;;;;;21.63;11.63;;;1.40;93.40;;;;;;5030472;28;20049;-78
2023/03/05 03:27:11;;;;;;;27.75;13.23;;;1.40;93.40;;;;;;5005606;28;20036;-78
2023/03/05 03:29:40;;;;;;;27.25;13.13;;;1.40;93.40;;;;;;5003702;28;20109;-79
2023/03/05 03:32:07;;;;;;;26.13;12.52;;;1.40;93.50;;;;;;5000820;28;20042;-77
2023/03/05 03:34:32;;;;;;;25.85;12.93;;;1.40;93.50;;;;;;5000451;28;20022;-78
2023/03/05 03:36:58;;;;;;;28.17;14.50;;;1.40;93.40;;;;;;4997628;28;20049;-77
2023/03/05 03:39:24;;;;;;;33.15;15.23;;;1.40;93.40;;;;;;4998541;28;20034;-78
2023/03/05 03:41:52;;;;;;;25.02;13.15;;;1.40;93.50;;;;;;5001291;28;20029;-78
2023/03/05 03:44:20;;;;;;;27.38;13.85;;;1.40;93.50;;;;;;5001225;28;20034;-79
2023/03/05 03:46:47;;;;;;;22.80;12.45;;;1.40;93.50;;;;;;5000731;28;20033;-78
2023/03/05 03:49:18;;;;;;;23.23;10.55;;;1.40;93.60;;;;;;4988551;28;20060;-78
2023/03/05 03:51:44;;;;;;;24.52;13.48;;;1.40;93.80;;;;;;5002000;28;20037;-77
2023/03/05 03:54:09;;;;;;;24.92;12.18;;;1.50;93.80;;;;;;4998398;28;20019;-77
2023/03/05 03:56:35;;;;;;;23.65;12.00;;;1.50;93.70;;;;;;4999145;28;20034;-77
2023/03/05 03:59:01;;;;;;;23.25;11.63;;;1.50;93.70;;;;;;4997938;28;20034;-78
2023/03/05 04:01:27;;;;;;;20.38;10.23;;;1.50;93.70;;;;;;4998155;28;20044;-77
2023/03/05 04:03:52;;;;;;;19.02;10.07;;;1.60;93.70;;;;;;4997796;28;20552;-78
2023/03/05 04:06:18;;;;;;;23.90;12.70;;;1.60;93.70;;;;;;4997214;28;20062;-78
2023/03/05 04:08:44;;;;;;;21.27;10.35;;;1.60;93.70;;;;;;5003451;28;20355;-78
2023/03/05 04:11:14;;;;;;;21.13;10.93;;;1.70;93.70;;;;;;4996607;28;20030;-78
2023/03/05 04:13:42;;;;;;;23.95;12.05;;;1.70;93.60;;;;;;4998367;28;20030;-79
2023/03/05 04:16:08;;;;;;;25.23;12.27;;;1.70;93.50;;;;;;4997743;28;20037;-78
2023/03/05 04:18:34;;;;;;;24.67;12.65;;;1.70;93.60;;;;;;5000718;28;20035;-79
2023/03/05 04:21:00;;;;;;;23.08;11.60;;;1.80;93.60;;;;;;5015888;28;20033;-78
2023/03/05 04:23:25;;;;;;;29.10;13.15;;;1.70;93.50;;;;;;4999548;28;20050;-78
2023/03/05 04:25:51;;;;;;;24.05;11.68;;;1.80;93.50;;;;;;4997660;28;20046;-79
2023/03/05 04:28:17;;;;;;;23.77;12.48;;;1.80;93.50;;;;;;4982710;28;20169;-78
2023/03/05 04:30:42;;;;;;;21.38;11.07;;;1.80;93.60;;;;;;4981200;28;20038;-79
2023/03/05 04:33:08;;;;;;;26.90;12.77;;;1.80;93.50;;;;;;4998161;28;20030;-79
2023/03/05 04:35:34;;;;;;;26.65;12.68;;;1.90;93.50;;;;;;4980717;28;20098;-78
2023/03/05 04:38:00;;;;;;;20.65;10.57;;;1.80;93.40;;;;;;4981258;28;20027;-79
2023/03/05 04:40:25;;;;;;;23.23;11.02;;;1.80;93.40;;;;;;4998717;28;20030;-78
2023/03/05 04:42:51;;;;;;;18.48;9.55;;;1.90;93.50;;;;;;4998860;28;20383;-78
2023/03/05 04:45:17;;;;;;;14.00;8.00;;;1.90;93.50;;;;;;4998677;28;20093;-79
2023/03/05 04:47:42;;;;;;;15.73;8.82;;;1.90;93.50;;;;;;4999329;28;20046;-76
2023/03/05 04:50:09;;;;;;;17.77;8.63;;;1.90;93.50;;;;;;5010411;28;20034;-75
2023/03/05 04:52:40;;;;;;;24.73;11.25;;;2.00;93.50;;;;;;5020755;28;20077;-75
2023/03/05 04:55:07;;;;;;;18.73;10.10;;;1.90;93.40;;;;;;5015949;28;20064;-77
2023/03/05 04:57:32;;;;;;;16.30;8.68;;;1.90;93.40;;;;;;4998858;28;20061;-77
2023/03/05 04:59:58;;;;;;;16.10;8.68;;;1.90;93.50;;;;;;4997657;28;20038;-77
2023/03/05 05:02:24;;;;;;;15.52;8.57;;;1.90;93.60;;;;;;4994902;28;20035;-78
2023/03/05 05:04:53;;;;;;;13.43;7.57;;;1.90;93.60;;;;;;4994621;28;20149;-76
2023/03/05 05:07:19;;;;;;;14.70;7.32;;;2.00;93.70;;;;;;4995752;28;20143;-76
2023/03/05 05:09:48;;;;;;;13.48;7.22;;;2.00;93.70;;;;;;4993708;28;20472;-77
2023/03/05 05:12:14;;;;;;;17.27;9.05;;;2.00;93.60;;;;;;4976192;28;20109;-77
2023/03/05 05:14:39;;;;;;;19.27;9.20;;;2.00;93.50;;;;;;4993770;28;20483;-76
2023/03/05 05:17:05;;;;;;;17.90;8.45;;;2.00;93.60;;;;;;4994259;28;20030;-75
2023/03/05 05:19:32;;;;;;;15.32;7.93;;;2.10;93.60;;;;;;4998677;28;20021;-77
2023/03/05 05:21:57;;;;;;;17.95;8.38;;;2.10;93.60;;;;;;5003990;28;20054;-77
2023/03/05 05:24:23;;;;;;;14.40;7.38;;;2.10;93.50;;;;;;4998668;28;20027;-76
2023/03/05 05:26:49;;;;;;;19.17;9.10;;;2.10;93.50;;;;;;4997822;28;20395;-76
2023/03/05 05:29:14;;;;;;;19.25;10.35;;;2.10;93.50;;;;;;4998270;28;20026;-77
2023/03/05 05:31:40;;;;;;;16.77;8.50;;;2.10;93.50;;;;;;4997070;28;20031;-76
2023/03/05 05:34:06;;;;;;;18.83;9.20;;;2.10;93.50;;;;;;4996410;28;20018;-76
2023/03/05 05:36:32;;;;;;;18.65;9.52;;;2.10;93.60;;;;;;4996988;28;20034;-76
2023/03/05 05:38:57;;;;;;;17.38;9.43;;;2.10;93.60;;;;;;4996894;28;20585;-76
2023/03/05 05:41:23;;;;;;;20.02;9.73;;;2.10;93.60;;;;;;4979767;28;20023;-76
2023/03/05 05:43:49;;;;;;;19.23;9.73;;;2.10;93.60;;;;;;4999554;28;20387;-77
2023/03/05 05:46:18;;;;;;;20.67;9.90;;;2.10;93.60;;;;;;4997194;28;20026;-76
2023/03/05 05:48:44;;;;;;;19.35;9.93;;;2.20;93.70;;;;;;5000445;28;20025;-75
2023/03/05 05:51:15;;;;;;;14.90;8.80;;;2.10;93.70;;;;;;4995828;28;20027;-75
2023/03/05 05:53:41;;;;;;;17.77;9.32;;;2.10;93.70;;;;;;4997450;28;20101;-76
2023/03/05 05:56:08;;;;;;;18.45;9.50;;;2.10;93.70;;;;;;4996885;28;20038;-76
2023/03/05 05:58:35;;;;;;;18.52;9.23;;;2.10;93.70;;;;;;4996679;28;20030;-76
2023/03/05 06:01:01;;;;;;;18.27;9.73;;;2.00;94.10;;;;;;4979154;28;20392;-76
2023/03/05 06:03:27;;;;;;;19.55;9.45;;;2.10;93.90;;;;;;4996246;28;20062;-76
2023/03/05 06:05:52;;;;;;;21.00;10.23;;;2.10;93.90;;;;;;4996194;28;20030;-76
2023/03/05 06:08:18;;;;;;;26.33;12.07;;;2.10;93.90;;;;;;4996195;28;20034;-75
2023/03/05 06:10:44;;;;;;;21.40;10.90;;;2.20;94.00;;;;;;4996753;28;20045;-77
2023/03/05 06:13:10;;;;;;;21.00;10.13;;;2.20;94.00;;;;;;4995252;28;20037;-76
2023/03/05 06:15:36;;;;;;;29.25;13.13;;;2.20;94.00;;;;;;5006702;28;20105;-77
2023/03/05 06:18:01;;;;;;;28.38;13.95;;;2.20;93.90;;;;;;5009812;28;20034;-78
2023/03/05 06:20:27;;;;;;;30.65;13.88;;;2.20;93.90;;;;;;5006663;28;20030;-76
2023/03/05 06:22:54;;;;;;;29.60;15.25;;;2.20;94.00;;;;;;5022335;28;20032;-75
2023/03/05 06:25:19;;;;;;;31.48;15.68;;;2.20;94.00;;;;;;5025329;28;20032;-76
2023/03/05 06:27:45;;;;;;;33.15;14.10;;;2.20;94.00;;;;;;5017339;28;20034;-76
2023/03/05 06:30:11;;;;;;;29.60;13.05;;;2.20;94.00;;;;;;5005372;28;20026;-76
2023/03/05 06:32:37;;;;;;;23.52;11.60;;;2.20;94.00;;;;;;4996371;28;20419;-76
2023/03/05 06:35:03;;;;;;;30.92;14.20;;;2.20;94.00;;;;;;4996960;28;20030;-76
2023/03/05 06:37:29;;;;;;;29.00;13.73;;;2.30;94.00;;;;;;4997155;28;20481;-76
2023/03/05 06:39:55;;;;;;;25.77;13.95;;;2.30;94.00;;;;;;4980026;28;20061;-77
2023/03/05 06:42:20;;;;;;;25.23;12.05;;;2.20;94.00;;;;;;4981296;28;20026;-77
2023/03/05 06:44:46;;;;;;;20.38;9.90;;;2.30;94.10;;;;;;4998424;28;20101;-77
2023/03/05 06:47:13;;;;;;;18.63;9.23;;;2.30;94.20;;;;;;4997113;28;20539;-77
2023/03/05 06:49:39;;;;;;;21.33;11.05;;;2.30;94.20;;;;;;5001902;28;20030;-76
2023/03/05 06:52:05;;;;;;;22.58;10.98;;;2.40;94.10;;;;;;5016822;28;20026;-75
2023/03/05 06:54:31;;;;;;;26.13;12.80;;;2.40;94.00;;;;;;5016658;28;20091;-76
2023/03/05 06:56:57;;;;;;;21.13;10.88;;;2.40;94.00;;;;;;4997222;28;20085;-77
2023/03/05 06:59:23;;;;;;;32.22;14.25;;;2.40;94.10;;;;;;4997781;28;20022;-77
2023/03/05 07:01:48;;;;;;;28.88;14.48;;;2.40;94.10;;;;;;4998337;28;20033;-75
2023/03/05 07:04:14;;;;;;;32.92;16.45;;;2.40;94.10;;;;;;4996610;28;20109;-76
2023/03/05 07:06:41;;;;;;;26.48;13.43;;;2.40;94.00;;;;;;4996820;28;20034;-76
2023/03/05 07:09:09;;;;;;;27.13;13.43;;;2.40;94.00;;;;;;4996794;28;20027;-76
2023/03/05 07:11:35;;;;;;;25.48;11.82;;;2.30;94.00;;;;;;4996444;28;20050;-76
2023/03/05 07:14:01;;;;;;;19.67;10.32;;;2.30;94.20;;;;;;4996745;28;20033;-77
2023/03/05 07:16:30;;;;;;;17.70;9.43;;;2.30;94.20;;;;;;4997674;28;20026;-77
2023/03/05 07:18:59;;;;;;;28.67;14.45;;;2.40;94.40;;;;;;5002189;28;20589;-76
2023/03/05 07:21:27;;;;;;;23.55;12.30;;;2.40;94.30;;;;;;5008002;28;20539;-76
2023/03/05 07:23:54;;;;;;;28.70;13.50;;;2.40;94.20;;;;;;4996075;28;20428;-76
2023/03/05 07:26:21;;;;;;;24.08;11.48;;;2.40;94.30;;;;;;4996115;28;20485;-76
2023/03/05 07:28:46;;;;;;;20.42;10.98;;;2.40;94.30;;;;;;4996603;28;20564;-77
2023/03/05 07:31:19;;;;;;;20.13;10.82;;;2.40;94.40;;;;;;4996362;28;20050;-77
2023/03/05 07:33:47;;;;;;;26.90;12.20;;;2.40;94.40;;;;;;4996819;28;20030;-77
2023/03/05 07:36:12;;;;;;;30.73;12.57;;;2.50;94.40;;;;;;4995228;28;20490;-77
2023/03/05 07:38:38;;;;;;;21.60;10.60;;;2.50;94.50;;;;;;4996673;28;20030;-76
2023/03/05 07:41:10;;;;;;;30.58;15.02;;;2.60;94.50;;;;;;4999176;28;20085;-76
2023/03/05 07:43:36;;;;;;;30.77;13.95;;;2.60;94.40;;;;;;4997071;28;20030;-77
2023/03/05 07:46:06;;;;;;;26.52;14.13;;;2.50;94.40;;;;;;5001159;28;20424;-76
2023/03/05 07:48:33;;;;;;;21.83;11.90;;;2.60;94.40;;;;;;5001589;28;20069;-77
2023/03/05 07:51:07;;;;;;;31.05;15.18;;;2.60;94.40;;;;;;5010141;28;20026;-77
2023/03/05 07:53:34;;;;;;;31.95;14.90;;;2.60;94.20;;;;;;5016396;28;20495;-76
2023/03/05 07:55:59;;;;;;;31.20;14.82;;;2.60;94.20;;;;;;5019888;28;20101;-78
2023/03/05 07:58:25;;;;;;;33.95;14.48;;;2.60;94.20;;;;;;5017167;28;20037;-76
2023/03/05 08:00:51;;;;;;;25.00;12.82;;;2.60;94.30;;;;;;5013146;28;20508;-77
2023/03/05 08:03:17;;;;;;;25.25;12.05;;;2.60;94.40;;;;;;4997449;28;20502;-77
2023/03/05 08:05:45;;;;;;;23.10;11.93;;;2.70;94.40;;;;;;4979030;28;20033;-76
2023/03/05 08:08:11;;;;;;;29.27;15.02;;;2.70;94.40;;;;;;4997203;28;20054;-76
2023/03/05 08:10:38;;;;;;;28.25;13.63;;;2.80;94.30;;;;;;4996796;28;20026;-76
2023/03/05 08:13:04;;;;;;;28.15;14.00;;;2.80;94.10;;;;;;4999880;28;20026;-76
2023/03/05 08:15:33;;;;;;;24.73;11.73;;;2.90;94.10;;;;;;5001949;28;20024;-76
2023/03/05 08:17:59;;;;;;;24.63;11.27;;;2.90;94.10;;;;;;4996289;28;20109;-76
2023/03/05 08:20:25;;;;;;;26.60;12.25;;;3.00;94.00;;;;;;5014669;28;20029;-77
2023/03/05 08:22:51;;;;;;;26.42;12.35;;;3.00;93.90;;;;;;4999541;28;20037;-76
2023/03/05 08:25:20;;;;;;;22.67;10.68;;;3.00;93.90;;;;;;4998466;28;20018;-77
2023/03/05 08:27:49;;;;;;;21.35;10.18;;;3.10;94.00;;;;;;4997089;28;20030;-77
2023/03/05 08:30:18;;;;;;;29.05;12.27;;;3.10;93.80;;;;;;4997774;28;20030;-78
2023/03/05 08:32:44;;;;;;;22.25;11.00;;;3.20;93.70;;;;;;4995393;28;20029;-76
2023/03/05 08:35:10;;;;;;;20.00;10.25;;;3.20;93.70;;;;;;4995322;28;20022;-76
2023/03/05 08:37:35;;;;;;;23.80;10.98;;;3.30;93.60;;;;;;4996190;28;20030;-77
2023/03/05 08:40:01;;;;;;;22.90;11.63;;;3.40;93.50;;;;;;4996067;28;20458;-77
2023/03/05 08:42:27;;;;;;;21.85;11.18;;;3.40;93.30;;;;;;4996290;28;20105;-76
2023/03/05 08:44:53;;;;;;;18.08;10.32;;;3.50;93.20;;;;;;4997548;28;20072;-75
2023/03/05 08:47:19;;;;;;;26.55;12.50;;;3.60;93.00;;;;;;5016704;28;20072;-76
2023/03/05 08:49:45;;;;;;;25.35;13.32;;;3.60;92.70;;;;;;4997075;28;20394;-77
2023/03/05 08:52:11;;;;;;;25.98;12.10;;;3.60;92.60;;;;;;5009021;28;20029;-78
2023/03/05 08:54:37;;;;;;;23.33;12.38;;;3.60;92.70;;;;;;5001632;28;20034;-76
2023/03/05 08:57:03;;;;;;;23.90;11.40;;;3.60;92.50;;;;;;5014777;28;20038;-76
2023/03/05 08:59:29;;;;;;;18.70;10.70;;;3.70;92.70;;;;;;4997162;28;20501;-76
2023/03/05 09:01:58;;;;;;;18.63;9.95;;;3.70;92.60;;;;;;4994767;28;20038;-76
2023/03/05 09:04:24;;;;;;;21.35;10.13;;;3.80;92.70;;;;;;4994565;28;20144;-77
2023/03/05 09:06:49;;;;;;;24.08;11.32;;;3.90;92.40;;;;;;4996143;28;20046;-77
2023/03/05 09:09:19;;;;;;;23.88;12.30;;;4.00;92.10;;;;;;4996665;28;20502;-77
2023/03/05 09:11:45;;;;;;;21.27;11.55;;;4.10;91.90;;;;;;4996801;28;20018;-77
2023/03/05 09:14:10;;;;;;;21.48;11.30;;;4.20;92.10;;;;;;5004524;28;20082;-75
2023/03/05 09:16:39;;;;;;;28.88;13.77;;;4.30;92.10;;;;;;5006008;28;20022;-77
2023/03/05 09:19:07;;;;;;;24.58;11.48;;;4.40;91.30;;;;;;5004120;28;20099;-76
2023/03/05 09:21:33;;;;;;;27.15;13.90;;;4.40;91.30;;;;;;5029682;22;20046;-76
2023/03/05 09:24:02;;;;;;;25.40;12.88;;;4.40;91.10;;;;;;4996402;28;20027;-76
2023/03/05 09:26:29;;;;;;;24.67;12.23;;;4.30;91.00;;;;;;4994305;28;20035;-76
2023/03/05 09:28:54;;;;;;;21.48;10.85;;;4.20;91.20;;;;;;4995547;28;20109;-76
2023/03/05 09:31:23;;;;;;;34.42;15.73;;;4.20;91.50;;;;;;5014210;28;20161;-76
2023/03/05 09:33:51;;;;;;;29.52;13.77;;;4.20;91.30;;;;;;5014797;28;20026;-77
2023/03/05 09:36:20;;;;;;;31.60;16.23;;;4.10;91.00;;;;;;5015648;28;20097;-75
2023/03/05 09:38:45;;;;;;;28.80;13.93;;;4.00;91.10;;;;;;5015754;28;20014;-76
2023/03/05 09:41:20;;;;;;;32.25;16.77;;;3.90;91.40;;;;;;5002167;28;20113;-76
2023/03/05 09:44:04;;;;;;;35.20;16.90;;;3.90;91.50;;;;;;4994955;28;20102;-75
2023/03/05 09:46:58;;;;;;;38.33;17.23;;;3.80;91.30;;;;;;4994651;28;20106;-76
2023/03/05 09:49:55;;;;;;;29.58;14.75;;;3.70;91.60;;;;;;5001589;28;20101;-75
2023/03/05 09:52:25;;;;;;;32.35;16.67;;;3.70;91.80;;;;;;5011522;28;20065;-76
2023/03/05 09:54:56;;;;;;;32.63;15.48;;;3.60;92.10;;;;;;5018739;28;20018;-76
2023/03/05 09:57:31;;;;;;;25.92;12.57;;;3.70;92.30;;;;;;5018241;28;20026;-75
2023/03/05 10:00:08;;;;;;;27.95;13.07;;;3.70;92.40;;;;;;5018494;28;20033;-76
2023/03/05 10:02:36;;;;;;;21.63;11.15;;;3.80;92.30;;;;;;5017368;28;20037;-75
2023/03/05 10:05:14;;;;;;;19.45;9.73;;;3.90;92.60;;;;;;5014699;28;20105;-76
2023/03/05 10:07:44;;;;;;;23.30;11.38;;;4.00;92.50;;;;;;5016271;28;20061;-77
2023/03/05 10:10:33;;;;;;;21.83;11.43;;;4.10;92.00;;;;;;5018357;28;20073;-76
2023/03/05 10:13:04;;;;;;;28.00;13.65;;;4.20;91.90;;;;;;4993981;28;20117;-76
2023/03/05 10:16:07;;;;;;;20.20;10.88;;;4.20;91.70;;;;;;4997739;28;20682;-76
2023/03/05 10:18:42;;;;;;;34.20;15.50;;;4.20;91.60;;;;;;4981573;28;20035;-77
2023/03/05 10:21:30;;;;;;;28.88;14.35;;;4.20;91.10;;;;;;5003156;28;20030;-78
2023/03/05 10:24:24;;;;;;;30.48;13.90;;;4.20;91.20;;;;;;5006513;28;20027;-75
2023/03/05 10:27:07;;;;;;;43.05;18.63;;;4.20;91.40;;;;;;5010100;28;20030;-77
2023/03/05 10:29:41;;;;;;;33.50;15.65;;;4.20;90.90;;;;;;5024930;28;20030;-76
2023/03/05 10:33:01;;;;;;;31.42;14.60;;;4.10;91.00;;;;;;5015510;28;20022;-75
2023/03/05 10:35:32;;;;;;;29.90;14.35;;;4.10;91.80;;;;;;4962388;28;20095;-76
2023/03/05 10:38:06;;;;;;;23.80;12.63;;;4.20;91.80;;;;;;5013972;28;20035;-77
2023/03/05 10:40:40;;;;;;;20.70;11.48;;;4.30;91.70;;;;;;5004182;28;20022;-76
2023/03/05 10:43:09;;;;;;;20.88;10.82;;;4.30;91.70;;;;;;5035362;28;20013;-77
2023/03/05 10:45:43;;;;;;;23.45;12.18;;;4.50;91.50;;;;;;5024064;28;20085;-76
2023/03/05 10:48:41;;;;;;;27.65;13.07;;;4.50;91.20;;;;;;5019790;28;20554;-77
2023/03/05 10:51:40;;;;;;;33.70;15.77;;;4.50;91.20;;;;;;5021504;28;20100;-76
2023/03/05 10:54:30;;;;;;;33.03;15.35;;;4.50;90.80;;;;;;5019506;28;20105;-76
2023/03/05 10:57:04;;;;;;;31.95;16.00;;;4.50;90.60;;;;;;5020821;28;20055;-77
2023/03/05 10:59:31;;;;;;;26.85;12.57;;;4.40;90.40;;;;;;5020527;28;20084;-77
2023/03/05 11:02:08;;;;;;;30.42;16.00;;;4.40;90.80;;;;;;5016446;28;20025;-77
2023/03/05 11:04:36;;;;;;;31.02;14.02;;;4.40;90.40;;;;;;5002662;28;20010;-76
2023/03/05 11:07:29;;;;;;;27.38;13.68;;;4.30;90.70;;;;;;4996003;28;20034;-77
2023/03/05 11:10:03;;;;;;;;;;;4.30;91.20;;;;;;4994066;28;20061;-77
2023/03/05 11:12:37;;;;;;;27.85;12.32;;;4.40;91.50;;;;;;4997405;28;20554;-77
2023/03/05 11:15:21;;;;;;;26.40;13.15;;;4.40;91.10;;;;;;4998250;28;20187;-77
2023/03/05 11:18:04;;;;;;;27.15;13.18;;;4.50;91.10;;;;;;4998036;28;20030;-77
2023/03/05 11:20:32;;;;;;;;;;;4.50;91.00;;;;;;5006891;28;20442;-75
2023/03/05 11:23:10;;;;;;;21.83;11.88;;;4.50;91.10;;;;;;5019856;28;20412;-77
2023/03/05 11:25:54;;;;;;;30.48;14.25;;;4.50;91.10;;;;;;4979193;28;20721;-77
2023/03/05 11:28:23;;;;;;;30.27;15.50;;;4.60;90.80;;;;;;4980003;28;20039;-75
2023/03/05 11:31:03;;;;;;;28.35;14.50;;;4.60;90.40;;;;;;4977890;28;20027;-77
2023/03/05 11:33:30;;;;;;;26.52;13.02;;;4.50;90.60;;;;;;4980952;28;20077;-76
2023/03/05 11:36:09;;;;;;;31.90;16.10;;;4.50;90.90;;;;;;5014661;28;20054;-77
2023/03/05 11:38:46;;;;;;;24.58;15.10;;;4.50;90.90;;;;;;5016754;28;20022;-76
2023/03/05 11:41:12;;;;;;;28.63;13.73;;;4.50;90.70;;;;;;5016655;28;20025;-76
2023/03/05 11:43:40;;;;;;;29.38;15.35;;;4.50;90.80;;;;;;5016717;28;20044;-76
2023/03/05 11:46:12;;;;;;;31.60;15.30;;;4.50;90.80;;;;;;4997476;28;20387;-78
2023/03/05 11:48:40;;;;;;;27.90;14.32;;;4.60;90.60;;;;;;5013578;28;20042;-77
2023/03/05 11:51:27;;;;;;;25.63;13.73;;;4.50;90.60;;;;;;5011841;28;20037;-77
2023/03/05 11:53:58;;;;;;;26.77;13.60;;;4.60;91.00;;;;;;5018006;28;20092;-77
2023/03/05 11:56:29;;;;;;;26.65;14.45;;;4.60;90.60;;;;;;5004937;28;20036;-76
2023/03/05 11:59:06;;;;;;;28.77;13.35;;;4.50;90.90;;;;;;5018154;28;20036;-76
2023/03/05 12:01:39;;;;;;;32.53;15.25;;;4.60;91.00;;;;;;5016742;28;20026;-76
2023/03/05 12:04:07;;;;;;;;;;;4.60;90.80;;;;;;5017537;28;20482;-75
2023/03/05 12:06:36;;;;;;;27.00;13.20;;;4.60;90.40;;;;;;4998616;28;19909;-75
2023/03/05 12:09:12;;;;;;;22.17;11.23;;;4.60;90.80;;;;;;4996712;28;20026;-77
2023/03/05 12:11:38;;;;;;;27.20;13.48;;;4.70;90.90;;;;;;5011837;28;20033;-76
2023/03/05 12:14:21;;;;;;;33.13;14.63;;;4.80;90.60;;;;;;4996051;28;20026;-77
2023/03/05 12:16:52;;;;;;;;;;;4.90;90.00;;;;;;5014379;28;20029;-76
2023/03/05 12:19:36;;;;;;;26.40;13.48;;;4.90;90.00;;;;;;5012383;28;19916;-76
2023/03/05 12:22:04;;;;;;;26.05;12.98;;;5.00;89.50;;;;;;5028705;28;20021;-77
2023/03/05 12:24:30;;;;;;;21.92;12.32;;;5.10;89.30;;;;;;5019993;28;20133;-77
2023/03/05 12:27:08;;;;;;;22.10;11.75;;;5.30;88.80;;;;;;5016874;28;20065;-76
2023/03/05 12:29:40;;;;;;;23.23;11.93;;;5.40;87.20;;;;;;5032340;28;20022;-76
2023/03/05 12:32:30;;;;;;;24.70;12.70;;;5.50;86.30;;;;;;5017494;28;20109;-77
2023/03/05 12:35:26;;;;;;;21.15;11.38;;;5.60;84.90;;;;;;5023674;28;20071;-76
2023/03/05 12:37:51;;;;;;;21.25;10.93;;;5.60;83.20;;;;;;4999319;28;20072;-76
2023/03/05 12:40:22;;;;;;;22.73;11.13;;;5.60;83.20;;;;;;5018302;28;20030;-77
2023/03/05 12:42:55;;;;;;;20.40;12.02;;;5.60;83.00;;;;;;5033992;28;20026;-76
2023/03/05 12:45:25;;;;;;;20.08;11.13;;;5.60;82.30;;;;;;5016033;28;20029;-77
2023/03/05 12:47:54;;;;;;;26.38;12.80;;;5.50;80.80;;;;;;4998073;28;20127;-77
2023/03/05 12:50:26;;;;;;;21.73;11.45;;;5.40;81.50;;;;;;5005332;28;20161;-77
2023/03/05 12:52:55;;;;;;;24.80;11.95;;;5.20;82.10;;;;;;5015703;28;20033;-76